createdAt,value
2022-08-08T00:00:51.082Z,18.17
2022-08-08T00:01:08.218Z,18.29
2022-08-08T00:02:03.182Z,18.37
2022-08-08T00:02:38.812Z,18.45
2022-08-08T00:03:38.738Z,18.51
2022-08-08T00:04:38.963Z,18.58
2022-08-08T00:06:00.826Z,18.63
2022-08-08T00:06:38.714Z,18.66
2022-08-08T00:07:38.825Z,18.67
2022-08-08T00:08:38.689Z,18.65
2022-08-08T00:09:38.688Z,18.66
2022-08-08T00:10:38.650Z,18.66
2022-08-08T00:11:57.883Z,18.65
2022-08-08T00:12:38.618Z,18.66
2022-08-08T00:14:15.108Z,18.67
2022-08-08T00:14:48.418Z,18.70
2022-08-08T00:15:57.589Z,18.73
2022-08-08T00:16:38.561Z,18.76
2022-08-08T00:18:02.163Z,18.75
2022-08-08T00:18:38.532Z,18.73
2022-08-08T00:19:38.547Z,18.75
2022-08-08T00:20:38.516Z,18.78
2022-08-08T00:21:39.361Z,18.76
2022-08-08T00:22:39.594Z,18.75
2022-08-08T00:23:43.024Z,18.72
2022-08-08T00:24:39.438Z,18.70
2022-08-08T00:25:44.977Z,18.69
2022-08-08T00:26:38.423Z,18.66
2022-08-08T00:27:38.415Z,18.65
2022-08-08T00:28:38.430Z,18.66
2022-08-08T00:29:44.968Z,18.70
2022-08-08T00:30:45.118Z,18.73
2022-08-08T00:32:28.253Z,18.75
2022-08-08T00:32:40.776Z,18.78
2022-08-08T00:34:17.923Z,18.81
2022-08-08T00:34:38.314Z,18.84
2022-08-08T00:35:38.303Z,18.81
2022-08-08T00:36:38.343Z,18.76
2022-08-08T00:37:48.325Z,18.70
2022-08-08T00:38:51.434Z,18.69
2022-08-08T00:41:09.995Z,18.66
2022-08-08T00:41:18.886Z,18.66
2022-08-08T00:41:54.857Z,18.65
2022-08-08T00:42:41.811Z,18.58
2022-08-08T00:43:40.710Z,18.55
2022-08-08T00:44:38.246Z,18.48
2022-08-08T00:45:38.171Z,18.47
2022-08-08T00:46:57.354Z,18.45
2022-08-08T00:48:04.902Z,18.45
2022-08-08T00:48:38.124Z,18.45
2022-08-08T00:49:38.132Z,18.48
2022-08-08T00:50:40.796Z,18.50
2022-08-08T00:51:41.977Z,18.52
2022-08-08T00:52:40.033Z,18.55
2022-08-08T00:53:43.736Z,18.54
2022-08-08T00:54:38.076Z,18.50
2022-08-08T00:55:54.019Z,18.45
2022-08-08T00:56:38.061Z,18.41
2022-08-08T00:57:38.015Z,18.35
2022-08-08T00:58:38.003Z,18.33
2022-08-08T00:59:44.217Z,18.35
2022-08-08T01:00:38.061Z,18.35
2022-08-08T01:01:39.172Z,18.29
2022-08-08T01:03:57.338Z,18.27
2022-08-08T01:04:07.797Z,18.26
2022-08-08T01:04:42.204Z,18.26
2022-08-08T01:05:58.921Z,18.27
2022-08-08T01:06:37.912Z,18.27
2022-08-08T01:07:55.914Z,18.29
2022-08-08T01:08:37.881Z,18.33
2022-08-08T01:09:41.323Z,18.35
2022-08-08T01:10:38.868Z,18.33
2022-08-08T01:11:37.856Z,18.30
2022-08-08T01:12:37.789Z,18.26
2022-08-08T01:13:43.753Z,18.17
2022-08-08T01:14:54.613Z,18.14
2022-08-08T01:15:43.923Z,18.05
2022-08-08T01:16:37.764Z,18.00
2022-08-08T01:17:52.058Z,17.92
2022-08-08T01:18:53.207Z,17.84
2022-08-08T01:19:57.880Z,17.75
2022-08-08T01:20:37.697Z,17.71
2022-08-08T01:22:13.083Z,17.64
2022-08-08T01:22:38.004Z,17.63
2022-08-08T01:24:05.407Z,17.62
2022-08-08T01:24:37.640Z,17.62
2022-08-08T01:25:40.736Z,17.58
2022-08-08T01:26:37.628Z,17.56
2022-08-08T01:27:43.543Z,17.52
2022-08-08T01:28:38.363Z,17.46
2022-08-08T01:29:58.834Z,17.41
2022-08-08T01:30:37.677Z,17.36
2022-08-08T01:32:06.446Z,17.31
2022-08-08T01:32:37.540Z,17.21
2022-08-08T01:33:42.929Z,17.12
2022-08-08T01:34:37.502Z,17.06
2022-08-08T01:35:38.373Z,17.01
2022-08-08T01:36:37.488Z,17.01
2022-08-08T01:37:58.276Z,17.03
2022-08-08T01:38:37.468Z,17.07
2022-08-08T01:39:41.969Z,17.15
2022-08-08T01:40:37.459Z,17.22
2022-08-08T01:41:38.139Z,17.34
2022-08-08T01:42:37.693Z,17.46
2022-08-08T01:43:38.866Z,17.55
2022-08-08T01:44:37.382Z,17.58
2022-08-08T01:45:37.723Z,17.52
2022-08-08T01:46:37.368Z,17.41
2022-08-08T01:48:16.104Z,17.21
2022-08-08T01:48:37.323Z,17.06
2022-08-08T01:49:38.730Z,16.89
2022-08-08T01:50:38.732Z,16.75
2022-08-08T01:52:51.613Z,16.66
2022-08-08T01:56:26.716Z,16.60
2022-08-08T01:56:37.454Z,16.58
2022-08-08T01:56:47.374Z,16.63
2022-08-08T01:58:11.347Z,16.63
2022-08-08T01:58:46.722Z,16.60
2022-08-08T02:00:02.499Z,16.57
2022-08-08T02:00:48.448Z,16.58
2022-08-08T02:01:59.947Z,16.61
2022-08-08T02:02:45.826Z,16.60
2022-08-08T02:03:54.450Z,16.57
2022-08-08T02:04:45.618Z,16.57
2022-08-08T02:05:56.551Z,16.60
2022-08-08T02:06:45.608Z,16.61
2022-08-08T02:07:49.034Z,16.61
2022-08-08T02:08:47.281Z,16.61
2022-08-08T02:10:03.799Z,16.64
2022-08-08T02:10:45.859Z,16.73
2022-08-08T02:12:00.091Z,16.81
2022-08-08T02:12:45.577Z,16.89
2022-08-08T02:13:53.785Z,17.01
2022-08-08T02:14:49.829Z,17.11
2022-08-08T02:15:45.526Z,17.18
2022-08-08T02:16:45.460Z,17.25
2022-08-08T02:17:45.477Z,17.30
2022-08-08T02:18:45.454Z,17.33
2022-08-08T02:20:07.621Z,17.37
2022-08-08T02:21:02.483Z,17.43
2022-08-08T02:21:45.398Z,17.48
2022-08-08T02:22:52.396Z,17.51
2022-08-08T02:23:45.381Z,17.52
2022-08-08T02:24:45.363Z,17.54
2022-08-08T02:25:48.548Z,17.52
2022-08-08T02:26:45.487Z,17.49
2022-08-08T02:27:45.335Z,17.46
2022-08-08T02:28:48.398Z,17.44
2022-08-08T02:29:51.975Z,17.44
2022-08-08T02:30:50.199Z,17.46
2022-08-08T02:31:59.440Z,17.44
2022-08-08T02:32:45.265Z,17.44
2022-08-08T02:34:08.385Z,17.46
2022-08-08T02:35:06.427Z,17.51
2022-08-08T02:36:03.835Z,17.52
2022-08-08T02:36:45.211Z,17.52
2022-08-08T02:37:51.856Z,17.56
2022-08-08T02:38:50.482Z,17.62
2022-08-08T02:39:58.428Z,17.63
2022-08-08T02:40:49.787Z,17.59
2022-08-08T02:41:59.276Z,17.62
2022-08-08T02:42:45.120Z,17.58
2022-08-08T02:44:39.378Z,17.63
2022-08-08T02:44:58.802Z,17.63
2022-08-08T02:45:54.355Z,17.63
2022-08-08T02:46:45.062Z,17.63
2022-08-08T02:47:47.128Z,17.64
2022-08-08T02:48:45.282Z,17.68
2022-08-08T02:49:48.241Z,17.68
2022-08-08T02:50:47.274Z,17.70
2022-08-08T02:51:55.447Z,17.72
2022-08-08T02:52:51.009Z,17.77
2022-08-08T02:53:44.959Z,17.74
2022-08-08T02:54:44.948Z,17.72
2022-08-08T02:55:44.982Z,17.74
2022-08-08T02:56:44.952Z,17.72
2022-08-08T02:57:45.718Z,17.71
2022-08-08T02:58:44.898Z,17.72
2022-08-08T02:59:57.498Z,17.72
2022-08-08T03:00:50.808Z,17.72
2022-08-08T03:01:50.019Z,17.72
2022-08-08T03:02:50.210Z,17.72
2022-08-08T03:05:00.830Z,17.66
2022-08-08T03:05:09.342Z,17.66
2022-08-08T03:05:46.753Z,17.63
2022-08-08T03:06:44.837Z,17.64
2022-08-08T03:07:58.847Z,17.62
2022-08-08T03:08:44.790Z,17.62
2022-08-08T03:09:45.025Z,17.59
2022-08-08T03:10:53.943Z,17.56
2022-08-08T03:12:01.438Z,17.56
2022-08-08T03:13:02.228Z,17.54
2022-08-08T03:15:58.849Z,17.52
2022-08-08T03:16:09.630Z,17.52
2022-08-08T03:16:34.413Z,17.49
2022-08-08T03:17:25.620Z,17.48
2022-08-08T03:18:16.533Z,17.48
2022-08-08T03:19:17.873Z,17.49
2022-08-08T03:20:16.565Z,17.49
2022-08-08T03:21:16.500Z,17.49
2022-08-08T03:22:38.651Z,17.48
2022-08-08T03:23:17.853Z,17.48
2022-08-08T03:24:16.457Z,17.44
2022-08-08T03:25:18.942Z,17.38
2022-08-08T03:26:16.400Z,17.31
2022-08-08T03:27:16.410Z,17.25
2022-08-08T03:28:19.105Z,17.06
2022-08-08T03:29:18.848Z,16.89
2022-08-08T03:30:19.813Z,16.78
2022-08-08T03:31:25.021Z,16.73
2022-08-08T03:32:16.371Z,16.78
2022-08-08T03:33:54.796Z,16.82
2022-08-08T03:34:16.335Z,16.88
2022-08-08T03:35:16.283Z,16.94
2022-08-08T03:36:19.910Z,16.97
2022-08-08T03:37:59.990Z,17.01
2022-08-08T03:39:15.179Z,17.06
2022-08-08T03:39:20.570Z,17.07
2022-08-08T03:40:29.722Z,17.08
2022-08-08T03:42:13.258Z,17.04
2022-08-08T03:42:33.595Z,16.98
2022-08-08T03:43:19.858Z,16.89
2022-08-08T03:44:16.247Z,16.76
2022-08-08T03:46:05.359Z,16.67
2022-08-08T03:46:16.173Z,16.56
2022-08-08T03:47:20.234Z,16.46
2022-08-08T03:48:21.312Z,16.34
2022-08-08T03:49:57.764Z,16.25
2022-08-08T03:50:20.149Z,16.17
2022-08-08T03:51:16.093Z,16.07
2022-08-08T03:52:16.086Z,16.00
2022-08-08T03:53:16.100Z,15.90
2022-08-08T03:54:41.390Z,15.82
2022-08-08T03:55:54.808Z,15.74
2022-08-08T03:56:31.056Z,15.67
2022-08-08T03:58:35.688Z,15.59
2022-08-08T03:58:47.835Z,15.56
2022-08-08T03:59:22.523Z,15.50
2022-08-08T04:00:18.393Z,15.47
2022-08-08T04:01:24.410Z,15.44
2022-08-08T04:02:33.545Z,15.41
2022-08-08T04:03:15.936Z,15.36
2022-08-08T04:04:15.913Z,15.29
2022-08-08T04:05:19.438Z,15.20
2022-08-08T04:06:15.901Z,15.11
2022-08-08T04:07:16.464Z,15.06
2022-08-08T04:08:15.855Z,14.99
2022-08-08T04:09:15.825Z,14.96
2022-08-08T04:10:15.841Z,14.96
2022-08-08T04:11:17.602Z,14.94
2022-08-08T04:12:16.199Z,14.92
2022-08-08T04:13:18.235Z,14.91
2022-08-08T04:14:33.822Z,14.89
2022-08-08T04:15:15.773Z,14.88
2022-08-08T04:16:15.848Z,14.81
2022-08-08T04:17:46.682Z,14.72
2022-08-08T04:18:16.522Z,14.61
2022-08-08T04:19:24.064Z,14.55
2022-08-08T04:20:15.710Z,14.52
2022-08-08T04:21:20.045Z,14.46
2022-08-08T04:22:16.780Z,14.43
2022-08-08T04:23:15.651Z,14.37
2022-08-08T04:24:28.240Z,14.29
2022-08-08T04:25:15.692Z,14.20
2022-08-08T04:26:15.613Z,14.10
2022-08-08T04:27:19.665Z,14.06
2022-08-08T04:28:40.136Z,14.03
2022-08-08T04:29:15.563Z,14.04
2022-08-08T04:30:17.971Z,14.09
2022-08-08T04:31:56.906Z,14.12
2022-08-08T04:32:30.898Z,14.14
2022-08-08T04:33:15.957Z,14.15
2022-08-08T04:34:15.495Z,14.14
2022-08-08T04:35:15.531Z,14.15
2022-08-08T04:36:15.972Z,14.18
2022-08-08T04:37:15.461Z,14.22
2022-08-08T04:38:20.966Z,14.25
2022-08-08T04:40:03.735Z,14.29
2022-08-08T04:40:15.533Z,14.32
2022-08-08T04:41:17.807Z,14.28
2022-08-08T04:42:15.639Z,14.27
2022-08-08T04:43:15.394Z,14.27
2022-08-08T04:44:15.369Z,14.29
2022-08-08T04:45:15.348Z,14.37
2022-08-08T04:46:15.381Z,14.40
2022-08-08T04:47:16.619Z,14.42
2022-08-08T04:48:15.342Z,14.45
2022-08-08T04:49:15.309Z,14.47
2022-08-08T04:50:24.825Z,14.54
2022-08-08T04:51:17.412Z,14.60
2022-08-08T04:52:15.262Z,14.68
2022-08-08T04:53:52.510Z,14.72
2022-08-08T04:54:42.092Z,14.81
2022-08-08T04:55:15.221Z,14.81
2022-08-08T04:56:15.204Z,14.81
2022-08-08T04:57:15.228Z,14.80
2022-08-08T04:58:15.191Z,14.80
2022-08-08T04:59:15.542Z,14.75
2022-08-08T05:00:19.732Z,14.75
2022-08-08T05:01:15.203Z,14.73
2022-08-08T05:02:15.167Z,14.72
2022-08-08T05:03:18.910Z,14.72
2022-08-08T05:04:16.203Z,14.73
2022-08-08T05:05:20.242Z,14.72
2022-08-08T05:06:25.927Z,14.73
2022-08-08T05:07:15.934Z,14.78
2022-08-08T05:08:15.026Z,14.81
2022-08-08T05:09:15.871Z,14.88
2022-08-08T05:10:15.053Z,14.95
2022-08-08T05:11:22.638Z,15.02
2022-08-08T05:12:20.376Z,15.10
2022-08-08T05:13:17.819Z,15.17
2022-08-08T05:14:15.128Z,15.25
2022-08-08T05:15:14.997Z,15.32
2022-08-08T05:16:55.311Z,15.39
2022-08-08T05:17:15.324Z,15.47
2022-08-08T05:18:15.262Z,15.53
2022-08-08T05:20:10.329Z,15.57
2022-08-08T05:20:19.445Z,15.62
2022-08-08T05:21:14.888Z,15.68
2022-08-08T05:22:17.607Z,15.74
2022-08-08T05:23:14.863Z,15.76
2022-08-08T05:24:14.840Z,15.82
2022-08-08T05:25:14.845Z,15.84
2022-08-08T05:26:14.802Z,15.86
2022-08-08T05:27:14.805Z,15.89
2022-08-08T05:28:15.107Z,15.92
2022-08-08T05:29:14.772Z,15.96
2022-08-08T05:30:14.786Z,16.00
2022-08-08T05:32:04.689Z,16.02
2022-08-08T05:32:14.752Z,16.04
2022-08-08T05:33:14.699Z,16.08
2022-08-08T05:34:14.753Z,16.12
2022-08-08T05:35:14.724Z,16.17
2022-08-08T05:36:25.738Z,16.23
2022-08-08T05:37:17.382Z,16.27
2022-08-08T05:38:31.502Z,16.31
2022-08-08T05:39:14.763Z,16.35
2022-08-08T05:40:16.573Z,16.38
2022-08-08T05:41:14.620Z,16.41
2022-08-08T05:42:14.589Z,16.43
2022-08-08T05:43:38.432Z,16.46
2022-08-08T05:44:14.624Z,16.50
2022-08-08T05:45:25.448Z,16.56
2022-08-08T05:46:14.557Z,16.60
2022-08-08T05:47:14.542Z,16.63
2022-08-08T05:48:14.804Z,16.66
2022-08-08T05:49:14.497Z,16.68
2022-08-08T05:50:14.480Z,16.71
2022-08-08T05:51:16.093Z,16.75
2022-08-08T05:52:14.470Z,16.82
2022-08-08T05:53:53.839Z,16.88
2022-08-08T05:54:27.565Z,16.94
2022-08-08T05:55:14.440Z,16.97
2022-08-08T05:56:15.301Z,16.98
2022-08-08T05:57:15.370Z,17.01
2022-08-08T05:58:17.864Z,17.06
2022-08-08T05:59:14.406Z,17.08
2022-08-08T06:00:22.548Z,17.15
2022-08-08T06:01:14.340Z,17.19
2022-08-08T06:02:14.314Z,17.22
2022-08-08T06:03:24.746Z,17.26
2022-08-08T06:04:22.818Z,17.31
2022-08-08T06:05:34.324Z,17.36
2022-08-08T06:06:14.274Z,17.43
2022-08-08T06:07:14.293Z,17.51
2022-08-08T06:08:33.200Z,17.56
2022-08-08T06:10:00.666Z,17.63
2022-08-08T06:10:22.613Z,17.66
2022-08-08T06:11:16.704Z,17.71
2022-08-08T06:12:14.326Z,17.74
2022-08-08T06:13:14.274Z,17.78
2022-08-08T06:14:17.986Z,17.84
2022-08-08T06:15:16.161Z,17.89
2022-08-08T06:16:14.246Z,17.96
2022-08-08T06:17:19.658Z,18.02
2022-08-08T06:18:21.222Z,18.07
2022-08-08T06:19:16.446Z,18.12
2022-08-08T06:20:14.077Z,18.14
2022-08-08T06:21:32.822Z,18.17
2022-08-08T06:23:14.043Z,18.26
2022-08-08T06:24:23.206Z,18.30
2022-08-08T06:25:14.097Z,18.35
2022-08-08T06:26:38.886Z,18.36
2022-08-08T06:27:14.038Z,18.42
2022-08-08T06:28:13.959Z,18.47
2022-08-08T06:29:49.088Z,18.51
2022-08-08T06:30:26.418Z,18.55
2022-08-08T06:31:15.485Z,18.60
2022-08-08T06:32:15.224Z,18.66
2022-08-08T06:33:15.087Z,18.70
2022-08-08T06:34:26.380Z,18.76
2022-08-08T06:36:08.525Z,18.82
2022-08-08T06:36:14.406Z,18.87
2022-08-08T06:37:24.744Z,18.91
2022-08-08T06:38:14.710Z,18.95
2022-08-08T06:39:13.942Z,18.99
2022-08-08T06:40:16.047Z,19.02
2022-08-08T06:41:15.213Z,19.04
2022-08-08T06:42:14.529Z,19.07
2022-08-08T06:43:13.767Z,19.13
2022-08-08T06:44:18.574Z,19.18
2022-08-08T06:45:13.777Z,19.19
2022-08-08T06:46:13.776Z,19.19
2022-08-08T06:47:13.713Z,19.19
2022-08-08T06:48:13.742Z,19.21
2022-08-08T06:49:13.675Z,19.21
2022-08-08T06:50:17.445Z,19.25
2022-08-08T06:51:13.755Z,19.36
2022-08-08T06:52:16.106Z,19.33
2022-08-08T06:53:17.013Z,19.37
2022-08-08T06:54:13.628Z,19.40
2022-08-08T06:55:13.657Z,19.43
2022-08-08T06:56:16.618Z,19.48
2022-08-08T06:57:13.586Z,19.55
2022-08-08T06:58:13.601Z,19.61
2022-08-08T06:59:13.563Z,19.66
2022-08-08T07:00:13.608Z,19.69
2022-08-08T07:02:17.100Z,19.76
2022-08-08T07:02:32.414Z,19.74
2022-08-08T07:03:19.509Z,19.76
2022-08-08T07:04:37.509Z,19.80
2022-08-08T07:05:20.501Z,19.84
2022-08-08T07:06:13.462Z,19.84
2022-08-08T07:07:13.495Z,19.86
2022-08-08T07:08:13.427Z,19.94
2022-08-08T07:09:15.092Z,19.94
2022-08-08T07:10:13.406Z,19.95
2022-08-08T07:11:22.170Z,19.95
2022-08-08T07:12:13.445Z,19.98
2022-08-08T07:13:13.403Z,20.01
2022-08-08T07:14:14.052Z,20.06
2022-08-08T07:15:32.614Z,20.17
2022-08-08T07:16:13.324Z,20.21
2022-08-08T07:17:14.363Z,20.23
2022-08-08T07:18:36.909Z,20.23
2022-08-08T07:19:13.319Z,20.24
2022-08-08T07:20:13.304Z,20.31
2022-08-08T07:21:19.375Z,20.36
2022-08-08T07:22:19.278Z,20.38
2022-08-08T07:23:13.249Z,20.38
2022-08-08T07:24:13.536Z,20.42
2022-08-08T07:25:17.104Z,20.50
2022-08-08T07:26:13.238Z,20.52
2022-08-08T07:27:16.778Z,20.55
2022-08-08T07:28:18.839Z,20.55
2022-08-08T07:29:58.879Z,20.55
2022-08-08T07:30:19.646Z,20.58
2022-08-08T07:31:13.175Z,20.59
2022-08-08T07:32:15.898Z,20.58
2022-08-08T07:33:17.610Z,20.61
2022-08-08T07:34:27.004Z,20.66
2022-08-08T07:35:14.057Z,20.79
2022-08-08T07:36:13.191Z,20.89
2022-08-08T07:37:13.351Z,20.98
2022-08-08T07:38:20.305Z,21.07
2022-08-08T07:39:13.388Z,21.16
2022-08-08T07:40:28.746Z,21.17
2022-08-08T07:41:23.524Z,21.19
2022-08-08T07:42:13.000Z,21.21
2022-08-08T07:43:12.963Z,21.27
2022-08-08T07:44:40.456Z,21.37
2022-08-08T07:45:12.950Z,21.54
2022-08-08T07:46:24.089Z,21.59
2022-08-08T07:47:12.935Z,21.65
2022-08-08T07:48:12.904Z,21.72
2022-08-08T07:49:12.901Z,21.80
2022-08-08T07:50:12.870Z,21.69
2022-08-08T07:51:23.972Z,21.74
2022-08-08T07:52:13.324Z,21.86
2022-08-08T07:53:12.833Z,21.99
2022-08-08T07:54:24.084Z,22.10
2022-08-08T07:55:12.875Z,22.20
2022-08-08T07:56:12.820Z,22.20
2022-08-08T07:57:16.917Z,22.25
2022-08-08T07:58:12.967Z,22.40
2022-08-08T07:59:14.245Z,22.45
2022-08-08T08:00:16.456Z,22.42
2022-08-08T08:01:12.792Z,22.33
2022-08-08T08:02:34.550Z,22.27
2022-08-08T08:03:20.497Z,22.33
2022-08-08T08:04:16.175Z,22.37
2022-08-08T08:05:14.946Z,22.43
2022-08-08T08:06:12.654Z,22.46
2022-08-08T08:07:12.664Z,22.51
2022-08-08T08:08:12.657Z,22.62
2022-08-08T08:09:12.621Z,22.70
2022-08-08T08:10:12.962Z,22.79
2022-08-08T08:11:16.148Z,22.86
2022-08-08T08:12:30.227Z,22.76
2022-08-08T08:13:17.719Z,22.72
2022-08-08T08:14:12.678Z,22.72
2022-08-08T08:15:15.636Z,22.76
2022-08-08T08:16:12.566Z,22.73
2022-08-08T08:17:12.497Z,22.77
2022-08-08T08:18:14.391Z,22.82
2022-08-08T08:19:12.750Z,22.88
2022-08-08T08:20:12.466Z,23.01
2022-08-08T08:21:18.580Z,23.10
2022-08-08T08:22:12.535Z,23.13
2022-08-08T08:23:12.433Z,23.12
2022-08-08T08:24:12.605Z,23.12
2022-08-08T08:25:12.438Z,23.17
2022-08-08T08:26:12.422Z,23.31
2022-08-08T08:27:12.412Z,23.40
2022-08-08T08:28:21.153Z,23.55
2022-08-08T08:29:13.844Z,23.75
2022-08-08T08:30:12.376Z,23.84
2022-08-08T08:31:12.339Z,23.79
2022-08-08T08:32:12.332Z,23.66
2022-08-08T08:33:12.348Z,23.65
2022-08-08T08:34:12.291Z,23.60
2022-08-08T08:35:15.179Z,23.55
2022-08-08T08:36:17.606Z,23.60
2022-08-08T08:37:12.265Z,23.53
2022-08-08T08:38:17.008Z,23.53
2022-08-08T08:39:17.556Z,23.58
2022-08-08T08:40:12.965Z,23.68
2022-08-08T08:41:13.254Z,23.72
2022-08-08T08:42:12.194Z,23.70
2022-08-08T08:43:16.799Z,23.69
2022-08-08T08:44:13.703Z,23.79
2022-08-08T08:45:22.992Z,23.88
2022-08-08T08:46:12.174Z,23.95
2022-08-08T08:47:12.119Z,24.00
2022-08-08T08:48:19.410Z,23.97
2022-08-08T08:49:12.106Z,24.00
2022-08-08T08:50:17.496Z,24.03
2022-08-08T08:51:12.085Z,23.97
2022-08-08T08:52:12.091Z,24.05
2022-08-08T08:53:53.964Z,24.12
2022-08-08T08:54:12.035Z,24.15
2022-08-08T08:55:12.226Z,24.27
2022-08-08T08:56:12.059Z,24.32
2022-08-08T08:57:15.761Z,24.43
2022-08-08T08:58:12.005Z,24.47
2022-08-08T08:59:15.100Z,24.50
2022-08-08T09:00:16.996Z,24.64
2022-08-08T09:01:13.531Z,24.78
2022-08-08T09:02:12.090Z,24.83
2022-08-08T09:03:11.906Z,24.80
2022-08-08T09:04:31.878Z,24.68
2022-08-08T09:05:13.946Z,24.62
2022-08-08T09:06:26.095Z,24.62
2022-08-08T09:07:12.653Z,24.68
2022-08-08T09:08:12.343Z,24.73
2022-08-08T09:09:18.913Z,24.68
2022-08-08T09:10:16.972Z,24.80
2022-08-08T09:11:11.865Z,24.83
2022-08-08T09:12:11.815Z,24.87
2022-08-08T09:13:11.780Z,24.95
2022-08-08T09:14:11.759Z,24.95
2022-08-08T09:15:11.739Z,24.98
2022-08-08T09:16:11.736Z,25.05
2022-08-08T09:17:17.368Z,25.10
2022-08-08T09:18:12.971Z,25.20
2022-08-08T09:19:11.729Z,25.28
2022-08-08T09:22:01.475Z,25.33
2022-08-08T09:22:10.259Z,25.40
2022-08-08T09:22:25.817Z,25.54
2022-08-08T09:23:17.345Z,25.51
2022-08-08T09:24:15.178Z,25.54
2022-08-08T09:25:15.369Z,25.60
2022-08-08T09:26:15.121Z,25.65
2022-08-08T09:27:20.440Z,25.76
2022-08-08T09:28:23.922Z,25.75
2022-08-08T09:29:22.664Z,25.73
2022-08-08T09:30:16.315Z,25.76
2022-08-08T09:31:15.100Z,25.88
2022-08-08T09:32:15.046Z,25.82
2022-08-08T09:34:28.465Z,25.77
2022-08-08T09:34:37.791Z,25.75
2022-08-08T09:35:15.930Z,25.73
2022-08-08T09:36:15.094Z,25.77
2022-08-08T09:37:37.319Z,25.67
2022-08-08T09:38:17.681Z,25.64
2022-08-08T09:39:19.185Z,25.61
2022-08-08T09:40:14.987Z,25.72
2022-08-08T09:41:14.959Z,25.75
2022-08-08T09:42:21.657Z,25.79
2022-08-08T09:43:16.840Z,25.83
2022-08-08T09:44:19.081Z,25.92
2022-08-08T09:45:20.649Z,25.95
2022-08-08T09:46:16.949Z,26.05
2022-08-08T09:47:25.714Z,26.20
2022-08-08T09:48:21.964Z,26.37
2022-08-08T09:49:41.603Z,26.54
2022-08-08T09:50:14.857Z,26.58
2022-08-08T09:51:14.784Z,26.52
2022-08-08T09:52:16.088Z,26.33
2022-08-08T09:53:31.905Z,26.18
2022-08-08T09:54:19.641Z,26.28
2022-08-08T09:55:17.431Z,26.35
2022-08-08T09:56:24.767Z,26.40
2022-08-08T09:57:16.436Z,26.48
2022-08-08T09:58:19.846Z,26.55
2022-08-08T09:59:50.321Z,26.66
2022-08-08T10:01:57.878Z,26.77
2022-08-08T10:02:15.804Z,26.87
2022-08-08T10:03:14.658Z,26.88
2022-08-08T10:04:14.628Z,26.91
2022-08-08T10:05:15.772Z,26.89
2022-08-08T10:06:14.639Z,26.77
2022-08-08T10:07:15.821Z,26.82
2022-08-08T10:08:14.608Z,26.85
2022-08-08T10:09:14.585Z,26.99
2022-08-08T10:10:14.589Z,27.06
2022-08-08T10:12:25.893Z,27.02
2022-08-08T10:12:37.687Z,27.06
2022-08-08T10:13:15.101Z,27.10
2022-08-08T10:14:27.996Z,27.21
2022-08-08T10:15:18.380Z,27.24
2022-08-08T10:16:14.470Z,27.25
2022-08-08T10:18:05.512Z,27.29
2022-08-08T10:18:25.486Z,27.36
2022-08-08T10:19:14.485Z,27.36
2022-08-08T10:20:16.833Z,27.39
2022-08-08T10:21:23.240Z,27.36
2022-08-08T10:22:14.524Z,27.31
2022-08-08T10:23:14.413Z,27.34
2022-08-08T10:24:28.710Z,27.44
2022-08-08T10:25:15.841Z,27.44
2022-08-08T10:26:31.021Z,27.46
2022-08-08T10:27:14.341Z,27.49
2022-08-08T10:28:15.170Z,27.49
2022-08-08T10:29:22.839Z,27.55
2022-08-08T10:30:16.689Z,27.60
2022-08-08T10:31:14.287Z,27.60
2022-08-08T10:32:14.280Z,27.57
2022-08-08T10:33:14.303Z,27.51
2022-08-08T10:34:19.495Z,27.44
2022-08-08T10:36:07.148Z,27.50
2022-08-08T10:36:22.135Z,27.65
2022-08-08T10:37:14.222Z,27.85
2022-08-08T10:38:14.241Z,27.81
2022-08-08T10:39:14.234Z,27.67
2022-08-08T10:40:16.182Z,27.66
2022-08-08T10:41:14.149Z,27.65
2022-08-08T10:42:16.291Z,27.69
2022-08-08T10:43:14.332Z,27.78
2022-08-08T10:44:14.129Z,27.66
2022-08-08T10:45:16.117Z,27.74
2022-08-08T10:46:29.702Z,27.78
2022-08-08T10:47:14.079Z,27.81
2022-08-08T10:48:14.041Z,27.79
2022-08-08T10:50:00.451Z,27.90
2022-08-08T10:50:15.753Z,28.12
2022-08-08T10:51:14.096Z,28.27
2022-08-08T10:52:14.008Z,28.18
2022-08-08T10:53:14.037Z,28.04
2022-08-08T10:54:14.006Z,28.00
2022-08-08T10:55:13.981Z,28.00
2022-08-08T10:56:27.707Z,28.00
2022-08-08T10:57:13.944Z,28.02
2022-08-08T10:58:13.947Z,28.03
2022-08-08T10:59:14.530Z,28.11
2022-08-08T11:00:13.911Z,28.18
2022-08-08T11:01:15.670Z,28.25
2022-08-08T11:02:13.941Z,28.24
2022-08-08T11:03:15.527Z,28.30
2022-08-08T11:04:13.875Z,28.18
2022-08-08T11:05:14.703Z,28.04
2022-08-08T11:06:14.124Z,28.04
2022-08-08T11:08:30.896Z,28.09
2022-08-08T11:08:53.031Z,28.29
2022-08-08T11:09:19.650Z,28.37
2022-08-08T11:10:19.666Z,28.41
2022-08-08T11:12:00.120Z,28.44
2022-08-08T11:12:23.825Z,28.43
2022-08-08T11:13:30.215Z,28.48
2022-08-08T11:14:15.816Z,28.27
2022-08-08T11:15:13.731Z,28.11
2022-08-08T11:16:32.961Z,28.09
2022-08-08T11:17:15.727Z,28.11
2022-08-08T11:18:13.703Z,28.19
2022-08-08T11:19:15.540Z,28.19
2022-08-08T11:20:13.708Z,28.12
2022-08-08T11:21:19.640Z,28.11
2022-08-08T11:22:13.604Z,28.14
2022-08-08T11:23:13.609Z,28.25
2022-08-08T11:24:13.977Z,28.43
2022-08-08T11:25:14.361Z,28.61
2022-08-08T11:26:18.690Z,28.62
2022-08-08T11:27:20.202Z,28.55
2022-08-08T11:28:13.553Z,28.61
2022-08-08T11:29:13.526Z,28.73
2022-08-08T11:30:24.436Z,28.78
2022-08-08T11:31:13.512Z,28.80
2022-08-08T11:32:13.552Z,28.73
2022-08-08T11:33:13.515Z,28.76
2022-08-08T11:34:24.143Z,28.52
2022-08-08T11:35:27.939Z,28.48
2022-08-08T11:36:13.613Z,28.46
2022-08-08T11:37:15.206Z,28.59
2022-08-08T11:38:39.389Z,28.66
2022-08-08T11:39:13.473Z,28.51
2022-08-08T11:40:13.493Z,28.48
2022-08-08T11:41:13.596Z,28.37
2022-08-08T11:42:13.346Z,28.33
2022-08-08T11:43:13.334Z,28.49
2022-08-08T11:44:13.348Z,28.56
2022-08-08T11:45:13.326Z,28.70
2022-08-08T11:46:18.007Z,28.88
2022-08-08T11:47:17.004Z,28.92
2022-08-08T11:48:13.269Z,28.90
2022-08-08T11:49:14.205Z,28.89
2022-08-08T11:50:13.252Z,28.88
2022-08-08T11:51:30.215Z,28.98
2022-08-08T11:52:18.755Z,29.18
2022-08-08T11:53:13.854Z,29.26
2022-08-08T11:54:32.328Z,29.27
2022-08-08T11:55:13.210Z,29.43
2022-08-08T11:56:13.187Z,29.37
2022-08-08T11:57:13.971Z,29.23
2022-08-08T11:58:15.310Z,29.09
2022-08-08T11:59:13.135Z,28.98
2022-08-08T12:00:13.094Z,29.02
2022-08-08T12:01:16.335Z,29.12
2022-08-08T12:02:31.175Z,29.18
2022-08-08T12:03:14.092Z,29.09
2022-08-08T12:04:13.093Z,29.02
2022-08-08T12:05:13.820Z,29.11
2022-08-08T12:06:13.083Z,29.12
2022-08-08T12:07:16.842Z,29.05
2022-08-08T12:08:13.035Z,28.77
2022-08-08T12:09:17.172Z,28.73
2022-08-08T12:10:13.440Z,28.86
2022-08-08T12:11:13.012Z,29.09
2022-08-08T12:12:12.961Z,29.28
2022-08-08T12:13:14.310Z,29.26
2022-08-08T12:14:13.012Z,29.30
2022-08-08T12:15:12.943Z,29.37
2022-08-08T12:16:12.930Z,29.31
2022-08-08T12:17:12.908Z,29.16
2022-08-08T12:18:12.894Z,29.08
2022-08-08T12:19:12.858Z,28.93
2022-08-08T12:20:14.582Z,29.02
2022-08-08T12:21:12.867Z,29.27
2022-08-08T12:22:20.826Z,29.42
2022-08-08T12:23:25.138Z,29.39
2022-08-08T12:24:12.900Z,29.31
2022-08-08T12:25:12.823Z,29.26
2022-08-08T12:26:17.070Z,29.36
2022-08-08T12:27:12.760Z,29.53
2022-08-08T12:28:15.439Z,29.65
2022-08-08T12:29:12.745Z,29.82
2022-08-08T12:30:15.985Z,29.78
2022-08-08T12:31:12.749Z,29.57
2022-08-08T12:32:17.208Z,29.28
2022-08-08T12:33:12.720Z,29.26
2022-08-08T12:34:12.688Z,29.18
2022-08-08T12:35:17.734Z,29.16
2022-08-08T12:36:12.670Z,29.23
2022-08-08T12:37:12.655Z,29.28
2022-08-08T12:38:17.806Z,29.37
2022-08-08T12:39:12.661Z,29.53
2022-08-08T12:40:12.711Z,29.42
2022-08-08T12:41:18.284Z,29.43
2022-08-08T12:42:20.883Z,29.58
2022-08-08T12:43:12.589Z,29.71
2022-08-08T12:44:12.544Z,29.73
2022-08-08T12:45:53.508Z,29.65
2022-08-08T12:46:12.570Z,29.58
2022-08-08T12:47:13.014Z,29.58
2022-08-08T12:48:35.716Z,29.53
2022-08-08T12:49:25.409Z,29.45
2022-08-08T12:50:12.495Z,29.37
2022-08-08T12:51:12.536Z,29.41
2022-08-08T12:52:28.039Z,29.51
2022-08-08T12:53:12.436Z,29.65
2022-08-08T12:54:24.380Z,29.61
2022-08-08T12:55:14.480Z,29.68
2022-08-08T12:56:18.956Z,29.57